createdAt,value
2019-05-07T00:01:51.517Z,99.66
2019-05-07T00:04:22.462Z,100.00
2019-05-07T00:06:52.872Z,100.00
2019-05-07T00:09:23.486Z,100.00
2019-05-07T00:11:53.599Z,100.00
2019-05-07T00:14:24.763Z,100.00
2019-05-07T00:16:54.450Z,100.00
2019-05-07T00:19:24.387Z,100.00
2019-05-07T00:21:54.484Z,100.00
2019-05-07T00:24:24.210Z,98.74
2019-05-07T00:26:53.867Z,100.00
2019-05-07T00:29:24.312Z,99.54
2019-05-07T00:31:54.092Z,98.82
2019-05-07T00:34:25.391Z,99.13
2019-05-07T00:37:02.377Z,99.89
2019-05-07T00:39:50.029Z,100.00
2019-05-07T00:42:27.476Z,100.00
2019-05-07T00:45:13.069Z,100.00
2019-05-07T00:47:30.156Z,100.00
2019-05-07T00:50:03.330Z,100.00
2019-05-07T00:52:33.631Z,100.00
2019-05-07T00:55:03.894Z,100.00
2019-05-07T00:57:33.821Z,100.00
2019-05-07T01:00:05.201Z,100.00
2019-05-07T01:02:34.845Z,100.00
2019-05-07T01:05:05.398Z,100.00
2019-05-07T01:07:35.061Z,100.00
2019-05-07T01:10:06.995Z,100.00
2019-05-07T01:12:36.651Z,100.00
2019-05-07T01:15:07.854Z,100.00
2019-05-07T01:17:37.521Z,100.00
2019-05-07T01:20:07.241Z,100.00
2019-05-07T01:22:37.008Z,100.00
2019-05-07T01:25:08.020Z,100.00
2019-05-07T01:27:37.679Z,100.00
2019-05-07T01:30:09.028Z,100.00
2019-05-07T01:32:42.431Z,100.00
2019-05-07T01:35:13.421Z,100.00
2019-05-07T01:37:43.093Z,100.00
2019-05-07T01:40:12.823Z,100.00
2019-05-07T01:42:42.547Z,100.00
2019-05-07T01:45:13.905Z,100.00
2019-05-07T01:47:43.627Z,100.00
2019-05-07T01:50:13.467Z,100.00
2019-05-07T01:52:43.080Z,100.00
2019-05-07T01:55:13.068Z,100.00
2019-05-07T01:57:42.717Z,100.00
2019-05-07T02:00:13.229Z,100.00
2019-05-07T02:02:44.594Z,100.00
2019-05-07T02:05:32.641Z,100.00
2019-05-07T02:08:04.213Z,100.00
2019-05-07T02:10:35.136Z,100.00
2019-05-07T02:13:04.870Z,100.00
2019-05-07T02:15:34.577Z,100.00
2019-05-07T02:18:04.488Z,100.00
2019-05-07T02:20:34.122Z,100.00
2019-05-07T02:23:03.789Z,100.00
2019-05-07T02:25:33.432Z,100.00
2019-05-07T02:28:04.702Z,100.00
2019-05-07T02:30:35.328Z,100.00
2019-05-07T02:33:05.094Z,100.00
2019-05-07T02:35:34.824Z,100.00
2019-05-07T02:38:06.182Z,100.00
2019-05-07T02:40:39.054Z,100.00
2019-05-07T02:43:08.764Z,100.00
2019-05-07T02:45:43.778Z,100.00
2019-05-07T02:48:13.509Z,100.00
2019-05-07T02:50:54.011Z,100.00
2019-05-07T02:53:25.430Z,100.00
2019-05-07T02:55:56.717Z,100.00
2019-05-07T02:58:26.379Z,100.00
2019-05-07T03:00:56.504Z,100.00
2019-05-07T03:03:26.165Z,100.00
2019-05-07T03:05:55.890Z,100.00
2019-05-07T03:08:27.589Z,100.00
2019-05-07T03:10:57.129Z,100.00
2019-05-07T03:13:26.790Z,100.00
2019-05-07T03:15:56.947Z,100.00
2019-05-07T03:18:26.667Z,100.00
2019-05-07T03:20:57.977Z,100.00
2019-05-07T03:23:34.104Z,100.00
2019-05-07T03:26:13.976Z,100.00
2019-05-07T03:28:53.703Z,100.00
2019-05-07T03:31:39.645Z,100.00
2019-05-07T03:34:16.215Z,100.00
2019-05-07T03:36:49.347Z,100.00
2019-05-07T03:39:19.307Z,100.00
2019-05-07T03:41:48.965Z,100.00
2019-05-07T03:44:23.976Z,100.00
2019-05-07T03:47:01.517Z,100.00
2019-05-07T03:49:27.951Z,100.00
2019-05-07T03:51:58.472Z,100.00
2019-05-07T03:54:28.130Z,100.00
2019-05-07T03:57:02.460Z,100.00
2019-05-07T03:59:29.237Z,100.00
2019-05-07T04:01:58.899Z,100.00
2019-05-07T04:04:28.559Z,100.00
2019-05-07T04:06:58.207Z,100.00
2019-05-07T04:09:29.075Z,100.00
2019-05-07T04:11:58.735Z,100.00
2019-05-07T04:14:29.923Z,100.00
2019-05-07T04:17:14.566Z,100.00
2019-05-07T04:19:32.889Z,100.00
2019-05-07T04:22:04.258Z,100.00
2019-05-07T04:24:42.881Z,100.00
2019-05-07T04:27:23.875Z,100.00
2019-05-07T04:29:53.167Z,100.00
2019-05-07T04:32:24.622Z,100.00
2019-05-07T04:34:55.922Z,100.00
2019-05-07T04:37:25.589Z,100.00
2019-05-07T04:39:55.234Z,100.00
2019-05-07T04:42:25.043Z,100.00
2019-05-07T04:44:56.028Z,100.00
2019-05-07T04:47:41.266Z,100.00
2019-05-07T04:49:57.070Z,100.00
2019-05-07T04:52:34.027Z,100.00
2019-05-07T04:55:04.715Z,100.00
2019-05-07T04:57:34.525Z,100.00
2019-05-07T05:00:07.022Z,100.00
2019-05-07T05:02:54.420Z,100.00
2019-05-07T05:05:25.111Z,100.00
2019-05-07T05:07:54.838Z,100.00
2019-05-07T05:10:24.490Z,100.00
2019-05-07T05:12:54.153Z,100.00
2019-05-07T05:15:24.830Z,100.00
2019-05-07T05:17:54.487Z,100.00
2019-05-07T05:20:25.793Z,100.00
2019-05-07T05:23:03.993Z,100.00
2019-05-07T05:25:37.998Z,100.00
2019-05-07T05:28:07.654Z,100.00
2019-05-07T05:30:42.441Z,100.00
2019-05-07T05:33:12.849Z,100.00
2019-05-07T05:35:43.192Z,100.00
2019-05-07T05:38:13.071Z,100.00
2019-05-07T05:40:43.802Z,100.00
2019-05-07T05:43:19.462Z,100.00
2019-05-07T05:45:52.880Z,100.00
2019-05-07T05:48:22.875Z,100.00
2019-05-07T05:51:05.946Z,100.00
2019-05-07T05:53:43.176Z,100.00
2019-05-07T05:56:32.404Z,100.00
2019-05-07T05:59:27.719Z,100.00
2019-05-07T06:01:55.077Z,100.00
2019-05-07T06:04:35.243Z,100.00
2019-05-07T06:07:11.481Z,100.00
2019-05-07T06:09:42.106Z,100.00
2019-05-07T06:12:25.816Z,100.00
2019-05-07T06:15:09.070Z,100.00
2019-05-07T06:17:38.581Z,100.00
2019-05-07T06:20:27.732Z,100.00
2019-05-07T06:23:15.568Z,100.00
2019-05-07T06:25:46.938Z,100.00
2019-05-07T06:28:16.633Z,100.00
2019-05-07T06:30:46.359Z,100.00
2019-05-07T06:33:16.025Z,100.00
2019-05-07T06:35:47.028Z,100.00
2019-05-07T06:38:16.960Z,100.00
2019-05-07T06:41:02.664Z,100.00
2019-05-07T06:43:42.026Z,100.00
2019-05-07T06:46:12.537Z,100.00
2019-05-07T06:48:45.920Z,100.00
2019-05-07T06:51:13.676Z,100.00
2019-05-07T06:53:43.326Z,100.00
2019-05-07T06:56:13.001Z,100.00
2019-05-07T06:58:53.091Z,100.00
2019-05-07T07:01:24.383Z,99.45
2019-05-07T07:03:53.881Z,99.51
2019-05-07T07:06:42.728Z,97.56
2019-05-07T07:09:14.179Z,99.27
2019-05-07T07:11:52.808Z,96.63
2019-05-07T07:14:22.822Z,95.62
2019-05-07T07:16:52.780Z,96.84
2019-05-07T07:19:23.324Z,97.53
2019-05-07T07:21:53.084Z,95.48
2019-05-07T07:24:22.740Z,93.98
2019-05-07T07:26:52.924Z,94.44
2019-05-07T07:29:24.289Z,94.75
2019-05-07T07:31:55.596Z,93.94
2019-05-07T07:34:26.725Z,93.12
2019-05-07T07:37:08.416Z,89.68
2019-05-07T07:39:33.789Z,89.43
2019-05-07T07:42:05.088Z,91.49
2019-05-07T07:44:34.760Z,90.25
2019-05-07T07:47:04.521Z,89.80
2019-05-07T07:49:34.315Z,88.95
2019-05-07T07:52:03.998Z,89.65
2019-05-07T07:54:33.658Z,90.18
2019-05-07T07:57:04.964Z,87.34
2019-05-07T07:59:38.838Z,87.34
2019-05-07T08:02:15.808Z,88.81
2019-05-07T08:04:45.478Z,87.35
2019-05-07T08:07:15.155Z,87.61
2019-05-07T08:09:44.816Z,86.02
2019-05-07T08:12:14.508Z,85.42
2019-05-07T08:14:44.175Z,85.66
2019-05-07T08:17:13.843Z,87.00
2019-05-07T08:19:43.590Z,85.03
2019-05-07T08:22:13.236Z,87.40
2019-05-07T08:24:42.912Z,84.96
2019-05-07T08:27:15.153Z,84.69
2019-05-07T08:29:44.105Z,84.74
2019-05-07T08:32:27.261Z,83.23
2019-05-07T08:34:59.355Z,85.41
2019-05-07T08:37:32.220Z,82.75
2019-05-07T08:40:03.102Z,82.88
2019-05-07T08:42:32.837Z,83.56
2019-05-07T08:45:22.767Z,83.20
2019-05-07T08:47:59.071Z,83.17
2019-05-07T08:50:30.283Z,82.47
2019-05-07T08:52:59.957Z,80.43
2019-05-07T08:55:29.685Z,81.34
2019-05-07T08:58:01.813Z,79.92
2019-05-07T09:00:32.563Z,79.69
2019-05-07T09:03:02.335Z,80.21
2019-05-07T09:05:32.447Z,79.33
2019-05-07T09:08:02.374Z,77.87
2019-05-07T09:10:32.607Z,76.08
2019-05-07T09:13:02.809Z,75.05
2019-05-07T09:15:32.615Z,77.91
2019-05-07T09:18:02.417Z,77.86
2019-05-07T09:20:32.312Z,75.80
2019-05-07T09:23:02.229Z,75.27
2019-05-07T09:25:33.626Z,73.91
2019-05-07T09:28:03.357Z,72.52
2019-05-07T09:30:52.289Z,73.06
2019-05-07T09:33:23.186Z,74.17
2019-05-07T09:35:53.625Z,71.77
2019-05-07T09:38:23.353Z,73.45
2019-05-07T09:40:53.107Z,71.42
2019-05-07T09:43:22.771Z,71.43
2019-05-07T09:45:52.511Z,74.73
2019-05-07T09:48:22.324Z,76.71
2019-05-07T09:50:53.025Z,75.07
2019-05-07T09:53:23.167Z,74.67
2019-05-07T09:55:52.831Z,72.35
2019-05-07T09:58:35.759Z,73.29
2019-05-07T10:00:55.082Z,72.76
2019-05-07T10:03:25.773Z,71.88
2019-05-07T10:05:55.422Z,72.27
2019-05-07T10:08:25.078Z,71.08
2019-05-07T10:10:54.921Z,69.58
2019-05-07T10:13:26.215Z,68.54
2019-05-07T10:15:56.291Z,67.97
2019-05-07T10:18:26.084Z,66.80
2019-05-07T10:20:55.981Z,64.87
2019-05-07T10:23:25.709Z,61.93
2019-05-07T10:25:55.674Z,59.82
2019-05-07T10:28:27.032Z,56.93
2019-05-07T10:30:56.768Z,58.32
2019-05-07T10:33:26.555Z,53.58
2019-05-07T10:35:56.214Z,54.11
2019-05-07T10:38:25.957Z,52.01
2019-05-07T10:40:55.678Z,50.61
2019-05-07T10:43:25.571Z,49.73
2019-05-07T10:46:04.274Z,48.44
2019-05-07T10:48:35.649Z,47.61
2019-05-07T10:51:07.425Z,48.75
2019-05-07T10:53:37.042Z,49.43
2019-05-07T10:56:06.707Z,49.46
2019-05-07T10:58:36.371Z,47.87
2019-05-07T11:01:07.001Z,47.17
2019-05-07T11:03:36.662Z,48.31
2019-05-07T11:06:06.541Z,47.74
2019-05-07T11:08:36.209Z,48.46
2019-05-07T11:11:05.948Z,49.38
2019-05-07T11:13:35.681Z,48.89
2019-05-07T11:16:07.003Z,49.05
2019-05-07T11:18:52.996Z,49.49
2019-05-07T11:21:33.311Z,49.66
2019-05-07T11:24:03.559Z,47.71
2019-05-07T11:26:33.401Z,47.51
2019-05-07T11:29:03.075Z,48.32
2019-05-07T11:31:33.201Z,48.80
2019-05-07T11:34:03.106Z,49.12
2019-05-07T11:36:34.442Z,48.10
2019-05-07T11:39:06.342Z,48.16
2019-05-07T11:41:37.719Z,47.02
2019-05-07T11:44:09.000Z,45.39
2019-05-07T11:46:41.582Z,46.35
2019-05-07T11:49:13.921Z,46.64
2019-05-07T11:51:45.234Z,45.52
2019-05-07T11:54:15.866Z,45.89
2019-05-07T11:56:45.586Z,46.84
2019-05-07T11:59:15.268Z,46.08
2019-05-07T12:01:47.838Z,45.93
2019-05-07T12:04:17.823Z,47.74
2019-05-07T12:06:47.555Z,46.41
2019-05-07T12:09:17.210Z,46.96
2019-05-07T12:11:47.006Z,47.49
2019-05-07T12:14:28.184Z,48.40
2019-05-07T12:16:48.048Z,49.19
2019-05-07T12:19:17.815Z,47.88
2019-05-07T12:21:47.520Z,47.02
2019-05-07T12:24:18.309Z,46.93
2019-05-07T12:26:47.974Z,47.22
2019-05-07T12:29:17.630Z,46.74
2019-05-07T12:31:52.004Z,45.20
2019-05-07T12:34:25.488Z,43.97
2019-05-07T12:36:56.008Z,45.02
2019-05-07T12:39:25.682Z,44.31
2019-05-07T12:41:56.708Z,43.74
2019-05-07T12:44:26.358Z,42.89
2019-05-07T12:46:56.021Z,42.46
2019-05-07T12:49:25.755Z,41.52
2019-05-07T12:51:57.052Z,41.09
2019-05-07T12:54:36.616Z,40.49
2019-05-07T12:57:05.799Z,39.49
2019-05-07T12:59:35.464Z,39.61
2019-05-07T13:02:17.909Z,40.65
2019-05-07T13:04:37.761Z,40.50
2019-05-07T13:07:23.973Z,41.06
2019-05-07T13:09:54.285Z,41.52
2019-05-07T13:12:23.974Z,42.26
2019-05-07T13:14:53.626Z,41.35
2019-05-07T13:17:23.292Z,41.00
2019-05-07T13:19:53.023Z,40.87
2019-05-07T13:22:22.691Z,40.25
2019-05-07T13:24:52.917Z,40.90
2019-05-07T13:27:22.846Z,36.09
2019-05-07T13:29:53.213Z,30.68
2019-05-07T13:32:26.116Z,29.76
2019-05-07T13:34:55.843Z,27.93
2019-05-07T13:37:29.997Z,31.14
2019-05-07T13:40:04.644Z,34.11
2019-05-07T13:42:45.704Z,31.66
2019-05-07T13:45:32.382Z,32.80
2019-05-07T13:48:03.926Z,34.60
2019-05-07T13:50:33.750Z,32.26
2019-05-07T13:53:03.492Z,32.42
2019-05-07T13:55:33.289Z,28.16
2019-05-07T13:58:03.011Z,23.16
2019-05-07T14:00:50.575Z,25.65
2019-05-07T14:03:22.246Z,26.86
2019-05-07T14:05:51.873Z,30.78
2019-05-07T14:08:23.122Z,30.01
2019-05-07T14:10:52.945Z,23.94
2019-05-07T14:13:23.396Z,21.00
2019-05-07T14:16:11.906Z,18.95
2019-05-07T14:18:42.040Z,17.14
2019-05-07T14:21:13.004Z,18.46
2019-05-07T14:23:43.307Z,22.82
2019-05-07T14:26:13.033Z,24.73
2019-05-07T14:28:42.705Z,26.83
2019-05-07T14:31:12.459Z,29.35
2019-05-07T14:33:49.280Z,30.89
2019-05-07T14:36:24.123Z,32.03
2019-05-07T14:38:55.318Z,33.02
2019-05-07T14:41:25.694Z,32.18
2019-05-07T14:44:09.252Z,33.40
2019-05-07T14:46:45.655Z,35.26
2019-05-07T14:49:12.061Z,36.18
2019-05-07T14:51:41.852Z,35.53
2019-05-07T14:54:13.199Z,34.00
2019-05-07T14:56:42.971Z,33.05
2019-05-07T14:59:12.890Z,32.81
2019-05-07T15:01:43.066Z,31.94
2019-05-07T15:04:13.077Z,31.90
2019-05-07T15:06:43.098Z,29.64
2019-05-07T15:09:14.414Z,31.67
2019-05-07T15:11:44.087Z,33.39
2019-05-07T15:14:13.850Z,31.34
2019-05-07T15:16:45.088Z,26.23
2019-05-07T15:19:15.914Z,25.45
2019-05-07T15:21:46.616Z,26.75
2019-05-07T15:24:16.339Z,28.82
2019-05-07T15:26:47.416Z,30.06
2019-05-07T15:29:17.416Z,30.77
2019-05-07T15:31:57.117Z,30.67
2019-05-07T15:34:26.777Z,29.13
2019-05-07T15:37:15.765Z,23.24
2019-05-07T15:39:45.437Z,25.86
2019-05-07T15:42:15.084Z,29.67
2019-05-07T15:44:44.754Z,31.89
2019-05-07T15:47:16.132Z,33.26
2019-05-07T15:49:45.827Z,33.84
2019-05-07T15:52:23.076Z,33.61
2019-05-07T15:54:52.786Z,34.65
2019-05-07T15:57:29.921Z,33.83
2019-05-07T16:00:06.870Z,33.96
2019-05-07T16:02:38.141Z,33.11
2019-05-07T16:05:11.859Z,33.83
2019-05-07T16:07:42.598Z,32.77
2019-05-07T16:10:15.065Z,33.34
2019-05-07T16:12:44.513Z,35.94
2019-05-07T16:15:14.476Z,36.11
2019-05-07T16:17:45.785Z,35.53
2019-05-07T16:20:15.872Z,36.18
2019-05-07T16:22:55.067Z,36.09
2019-05-07T16:25:24.509Z,35.65
2019-05-07T16:27:54.178Z,35.55
2019-05-07T16:30:24.079Z,35.67
2019-05-07T16:32:55.406Z,34.87
2019-05-07T16:35:25.312Z,35.33
2019-05-07T16:37:58.396Z,35.73
2019-05-07T16:40:28.035Z,36.84
2019-05-07T16:42:57.694Z,37.60
2019-05-07T16:45:28.886Z,37.72
2019-05-07T16:48:00.481Z,38.19
2019-05-07T16:50:30.001Z,38.47
2019-05-07T16:53:00.150Z,39.32
2019-05-07T16:55:36.899Z,38.33
2019-05-07T16:58:12.566Z,39.01
2019-05-07T17:00:43.944Z,39.41
2019-05-07T17:03:15.243Z,38.72
2019-05-07T17:05:46.440Z,38.68
2019-05-07T17:08:18.077Z,38.95
2019-05-07T17:10:47.887Z,39.27
2019-05-07T17:13:17.530Z,40.12
2019-05-07T17:15:57.581Z,40.42
2019-05-07T17:18:32.429Z,41.21
2019-05-07T17:21:02.098Z,41.57
2019-05-07T17:23:43.834Z,41.87
2019-05-07T17:26:05.681Z,41.81
2019-05-07T17:28:35.363Z,43.01
2019-05-07T17:31:05.042Z,43.82
2019-05-07T17:33:34.688Z,43.24
2019-05-07T17:36:05.341Z,43.09
2019-05-07T17:38:34.993Z,42.30
2019-05-07T17:41:13.726Z,43.61
2019-05-07T17:43:36.117Z,44.03
2019-05-07T17:46:05.772Z,43.42
2019-05-07T17:48:35.438Z,43.41
2019-05-07T17:51:04.861Z,44.49
2019-05-07T17:53:34.518Z,44.24
2019-05-07T17:56:05.716Z,44.13
2019-05-07T17:58:35.379Z,45.78
2019-05-07T18:01:05.905Z,46.23
2019-05-07T18:03:39.915Z,46.05
2019-05-07T18:06:09.872Z,45.71
2019-05-07T18:08:39.627Z,46.12
2019-05-07T18:11:20.315Z,45.65
2019-05-07T18:13:42.577Z,50.83
2019-05-07T18:16:16.503Z,50.99
2019-05-07T18:18:46.165Z,50.52
2019-05-07T18:21:15.897Z,51.98
2019-05-07T18:23:45.556Z,51.90
2019-05-07T18:26:27.196Z,52.93
2019-05-07T18:28:46.666Z,53.14
2019-05-07T18:31:19.512Z,53.74
2019-05-07T18:33:54.307Z,53.77
2019-05-07T18:36:24.035Z,53.77
2019-05-07T18:38:53.755Z,54.56
2019-05-07T18:41:23.471Z,55.26
2019-05-07T18:43:54.718Z,56.44
2019-05-07T18:46:25.953Z,57.01
2019-05-07T18:48:55.617Z,57.16
2019-05-07T18:51:25.286Z,56.93
2019-05-07T18:53:54.953Z,57.76
2019-05-07T18:56:24.658Z,58.22
2019-05-07T18:58:54.263Z,59.04
2019-05-07T19:01:25.562Z,59.81
2019-05-07T19:03:56.096Z,60.29
2019-05-07T19:06:25.797Z,61.07
2019-05-07T19:08:55.921Z,62.88
2019-05-07T19:11:26.820Z,64.97
2019-05-07T19:13:56.476Z,64.40
2019-05-07T19:16:26.142Z,64.26
2019-05-07T19:18:57.567Z,64.62
2019-05-07T19:21:27.228Z,64.45
2019-05-07T19:23:56.917Z,65.74
2019-05-07T19:26:26.579Z,67.44
2019-05-07T19:28:56.234Z,67.49
2019-05-07T19:31:25.971Z,68.01
2019-05-07T19:33:55.672Z,67.77
2019-05-07T19:36:25.321Z,70.78
2019-05-07T19:38:54.981Z,71.26
2019-05-07T19:41:24.636Z,72.20
2019-05-07T19:43:54.299Z,75.19
2019-05-07T19:46:23.971Z,76.44
2019-05-07T19:48:53.655Z,78.72
2019-05-07T19:51:23.317Z,77.59
2019-05-07T19:53:52.978Z,76.07
2019-05-07T19:56:24.321Z,75.93
2019-05-07T19:58:54.479Z,76.09
2019-05-07T20:01:25.856Z,77.87
2019-05-07T20:03:55.524Z,77.74
2019-05-07T20:06:25.183Z,76.88
2019-05-07T20:09:08.116Z,77.79
2019-05-07T20:11:27.863Z,77.26
2019-05-07T20:13:57.510Z,77.10
2019-05-07T20:16:27.184Z,76.83
2019-05-07T20:18:56.835Z,78.56
2019-05-07T20:21:26.553Z,78.54
2019-05-07T20:23:56.219Z,78.77
2019-05-07T20:26:25.939Z,77.86
2019-05-07T20:28:55.609Z,78.85
2019-05-07T20:31:25.273Z,80.27
2019-05-07T20:33:55.010Z,78.36
2019-05-07T20:36:24.741Z,78.52
2019-05-07T20:38:54.386Z,78.69
2019-05-07T20:41:24.082Z,78.83
2019-05-07T20:43:53.733Z,79.23
2019-05-07T20:46:23.398Z,77.85
2019-05-07T20:48:54.194Z,79.11
2019-05-07T20:51:23.931Z,80.47
2019-05-07T20:54:12.905Z,79.96
2019-05-07T20:57:02.402Z,81.60
2019-05-07T20:59:32.813Z,79.84
2019-05-07T21:02:02.688Z,81.23
2019-05-07T21:04:32.993Z,80.54
2019-05-07T21:07:02.857Z,80.25
2019-05-07T21:09:32.960Z,80.78
2019-05-07T21:12:03.972Z,80.54
2019-05-07T21:14:33.618Z,81.32
2019-05-07T21:17:04.706Z,80.91
2019-05-07T21:19:34.363Z,81.30
2019-05-07T21:22:04.097Z,82.17
2019-05-07T21:24:33.748Z,81.27
2019-05-07T21:27:03.413Z,81.81
2019-05-07T21:29:33.126Z,81.92
2019-05-07T21:32:03.450Z,81.33
2019-05-07T21:34:33.103Z,81.46
2019-05-07T21:37:03.338Z,82.94
2019-05-07T21:39:33.236Z,81.44
2019-05-07T21:42:03.016Z,81.48
2019-05-07T21:44:32.800Z,82.26
2019-05-07T21:47:03.933Z,82.38
2019-05-07T21:49:33.743Z,82.94
2019-05-07T21:52:04.567Z,83.04
2019-05-07T21:54:38.912Z,83.26
2019-05-07T21:57:22.419Z,83.28
2019-05-07T21:59:55.026Z,82.98
2019-05-07T22:02:26.417Z,83.12
2019-05-07T22:04:56.082Z,82.25
2019-05-07T22:07:25.732Z,83.28
2019-05-07T22:09:55.797Z,84.20
2019-05-07T22:12:25.446Z,84.42
2019-05-07T22:14:55.120Z,85.71
2019-05-07T22:17:24.838Z,85.66
2019-05-07T22:19:56.201Z,85.16
2019-05-07T22:22:25.865Z,86.48
2019-05-07T22:24:55.719Z,86.41
2019-05-07T22:27:25.406Z,87.33
2019-05-07T22:29:55.130Z,86.17
2019-05-07T22:32:52.807Z,85.86
2019-05-07T22:35:24.099Z,85.03
2019-05-07T22:37:56.197Z,86.20
2019-05-07T22:40:25.844Z,86.40
2019-05-07T22:42:55.512Z,87.24
2019-05-07T22:45:25.249Z,85.98
2019-05-07T22:47:54.907Z,85.18
2019-05-07T22:50:24.567Z,87.36
2019-05-07T22:52:54.543Z,84.71
2019-05-07T22:55:24.266Z,84.07
2019-05-07T22:58:01.501Z,85.84
2019-05-07T23:00:32.931Z,85.71
2019-05-07T23:03:02.903Z,84.78
2019-05-07T23:05:32.632Z,85.32
2019-05-07T23:08:02.525Z,84.74
2019-05-07T23:10:33.250Z,85.80
2019-05-07T23:13:03.048Z,86.51
2019-05-07T23:15:32.775Z,86.15
2019-05-07T23:18:04.459Z,85.21
2019-05-07T23:20:33.939Z,86.37
2019-05-07T23:23:04.254Z,86.04
2019-05-07T23:25:33.905Z,85.60
2019-05-07T23:28:05.237Z,83.44
2019-05-07T23:30:35.118Z,84.00
2019-05-07T23:33:04.839Z,86.57
2019-05-07T23:35:34.505Z,84.05
2019-05-07T23:38:04.153Z,83.96
2019-05-07T23:40:38.274Z,82.77
2019-05-07T23:43:12.147Z,83.85
2019-05-07T23:45:42.050Z,83.65
2019-05-07T23:48:12.292Z,82.74
2019-05-07T23:50:42.157Z,83.08
2019-05-07T23:53:12.945Z,84.14
2019-05-07T23:55:42.632Z,82.30
2019-05-07T23:58:14.137Z,84.30
